createdAt,value
2018-03-22T00:00:21.512Z,23.40
2018-03-22T00:02:48.593Z,23.60
2018-03-22T00:05:15.824Z,23.60
2018-03-22T00:07:42.809Z,23.60
2018-03-22T00:10:09.809Z,23.60
2018-03-22T00:12:36.982Z,23.50
2018-03-22T00:15:03.974Z,23.40
2018-03-22T00:17:30.981Z,23.50
2018-03-22T00:19:57.980Z,23.60
2018-03-22T00:22:25.790Z,23.50
2018-03-22T00:24:52.795Z,23.50
2018-03-22T00:27:19.791Z,23.50
2018-03-22T00:29:46.803Z,23.60
2018-03-22T00:32:15.134Z,23.50
2018-03-22T00:34:42.146Z,23.50
2018-03-22T00:37:09.140Z,23.50
2018-03-22T00:39:36.164Z,23.50
2018-03-22T00:42:03.168Z,23.60
2018-03-22T00:44:30.161Z,23.50
2018-03-22T00:46:57.198Z,23.50
2018-03-22T00:49:24.218Z,23.50
2018-03-22T00:51:51.196Z,23.40
2018-03-22T00:54:18.225Z,23.50
2018-03-22T00:56:45.251Z,23.40
2018-03-22T00:59:12.252Z,23.50
2018-03-22T01:01:39.244Z,23.40
2018-03-22T01:04:06.419Z,23.50
2018-03-22T01:06:33.416Z,23.40
2018-03-22T01:09:00.410Z,23.40
2018-03-22T01:11:27.410Z,23.40
2018-03-22T01:13:55.225Z,23.40
2018-03-22T01:16:22.234Z,23.50
2018-03-22T01:18:49.234Z,23.50
2018-03-22T01:21:16.248Z,23.30
2018-03-22T01:23:43.401Z,23.50
2018-03-22T01:26:10.393Z,23.30
2018-03-22T01:28:37.388Z,23.40
2018-03-22T01:31:04.392Z,23.50
2018-03-22T01:33:31.580Z,23.50
2018-03-22T01:35:58.571Z,23.50
2018-03-22T01:38:25.574Z,23.50
2018-03-22T01:40:52.561Z,23.50
2018-03-22T01:43:19.580Z,23.40
2018-03-22T01:45:46.584Z,23.40
2018-03-22T01:48:13.584Z,23.20
2018-03-22T01:50:40.613Z,23.30
2018-03-22T01:53:07.777Z,23.30
2018-03-22T01:55:34.780Z,23.20
2018-03-22T01:58:01.778Z,23.30
2018-03-22T02:00:28.770Z,23.40
2018-03-22T02:02:55.965Z,23.20
2018-03-22T02:05:22.961Z,23.40
2018-03-22T02:07:50.042Z,23.40
2018-03-22T02:10:17.034Z,23.40
2018-03-22T02:12:44.141Z,23.40
2018-03-22T02:15:11.131Z,23.80
2018-03-22T02:17:38.127Z,23.30
2018-03-22T02:20:05.130Z,23.40
2018-03-22T02:22:32.344Z,23.30
2018-03-22T02:24:59.344Z,23.30
2018-03-22T02:27:26.341Z,23.30
2018-03-22T02:29:53.337Z,23.30
2018-03-22T02:32:20.535Z,23.30
2018-03-22T02:34:47.544Z,23.30
2018-03-22T02:37:14.539Z,23.30
2018-03-22T02:39:41.528Z,23.40
2018-03-22T02:42:08.721Z,23.30
2018-03-22T02:44:35.731Z,23.40
2018-03-22T02:47:02.736Z,23.30
2018-03-22T02:49:29.728Z,23.20
2018-03-22T02:51:57.491Z,23.20
2018-03-22T02:54:24.476Z,23.20
2018-03-22T02:56:51.459Z,23.30
2018-03-22T02:59:18.459Z,23.30
2018-03-22T03:01:45.459Z,23.20
2018-03-22T03:04:12.457Z,23.30
2018-03-22T03:06:39.466Z,23.30
2018-03-22T03:09:07.486Z,23.30
2018-03-22T03:11:34.480Z,23.30
2018-03-22T03:14:02.580Z,23.30
2018-03-22T03:16:29.558Z,23.30
2018-03-22T03:18:56.555Z,23.30
2018-03-22T03:21:24.554Z,23.30
2018-03-22T03:23:51.623Z,23.30
2018-03-22T03:26:18.619Z,23.30
2018-03-22T03:28:45.622Z,23.30
2018-03-22T03:31:12.616Z,23.20
2018-03-22T03:33:40.424Z,23.10
2018-03-22T03:36:07.418Z,23.10
2018-03-22T03:38:34.413Z,23.10
2018-03-22T03:41:01.416Z,23.10
2018-03-22T03:43:29.225Z,23.10
2018-03-22T03:45:56.221Z,23.10
2018-03-22T03:48:23.999Z,23.20
2018-03-22T03:50:51.022Z,23.20
2018-03-22T03:53:18.236Z,23.20
2018-03-22T03:55:45.224Z,23.20
2018-03-22T03:58:12.229Z,23.30
2018-03-22T04:00:39.229Z,23.20
2018-03-22T04:03:07.026Z,23.20
2018-03-22T04:05:34.029Z,23.20
2018-03-22T04:08:01.822Z,23.20
2018-03-22T04:10:29.882Z,23.10
2018-03-22T04:12:57.696Z,23.20
2018-03-22T04:15:24.695Z,23.20
2018-03-22T04:17:51.685Z,23.00
2018-03-22T04:20:18.676Z,23.00
2018-03-22T04:22:46.486Z,23.10
2018-03-22T04:25:13.480Z,23.10
2018-03-22T04:27:40.478Z,23.10
2018-03-22T04:30:07.482Z,23.20
2018-03-22T04:32:35.300Z,22.80
2018-03-22T04:35:02.280Z,23.10
2018-03-22T04:37:29.292Z,23.10
2018-03-22T04:39:56.309Z,23.10
2018-03-22T04:42:23.473Z,23.10
2018-03-22T04:44:50.474Z,23.10
2018-03-22T04:47:17.505Z,23.10
2018-03-22T04:49:44.492Z,23.20
2018-03-22T04:52:12.298Z,23.10
2018-03-22T04:54:39.302Z,23.00
2018-03-22T04:57:06.290Z,23.10
2018-03-22T04:59:33.278Z,23.10
2018-03-22T05:02:00.272Z,22.90
2018-03-22T05:04:27.280Z,23.00
2018-03-22T05:06:55.830Z,23.00
2018-03-22T05:09:22.815Z,23.00
2018-03-22T05:11:49.812Z,23.00
2018-03-22T05:14:16.819Z,23.00
2018-03-22T05:16:44.578Z,23.10
2018-03-22T05:19:11.637Z,23.00
2018-03-22T05:21:38.634Z,22.80
2018-03-22T05:24:05.756Z,23.00
2018-03-22T05:26:32.754Z,23.00
2018-03-22T05:28:59.747Z,23.00
2018-03-22T05:31:26.736Z,23.00
2018-03-22T05:33:53.954Z,22.90
2018-03-22T05:36:20.973Z,22.80
2018-03-22T05:38:47.977Z,23.00
2018-03-22T05:41:14.982Z,23.00
2018-03-22T05:43:42.149Z,22.80
2018-03-22T05:46:09.165Z,23.00
2018-03-22T05:48:36.189Z,23.00
2018-03-22T05:51:03.178Z,22.90
2018-03-22T05:53:30.354Z,22.90
2018-03-22T05:55:57.352Z,22.80
2018-03-22T05:58:24.354Z,22.80
2018-03-22T06:00:51.351Z,22.90
2018-03-22T06:03:18.509Z,22.90
2018-03-22T06:05:45.503Z,22.80
2018-03-22T06:08:12.509Z,22.90
2018-03-22T06:10:39.513Z,22.90
2018-03-22T06:13:07.315Z,22.90
2018-03-22T06:15:34.342Z,22.90
2018-03-22T06:18:01.366Z,22.90
2018-03-22T06:20:28.370Z,22.80
2018-03-22T06:22:55.508Z,22.80
2018-03-22T06:25:22.509Z,23.00
2018-03-22T06:27:50.277Z,23.00
2018-03-22T06:30:18.057Z,22.90
2018-03-22T06:32:45.135Z,22.90
2018-03-22T06:35:12.361Z,22.60
2018-03-22T06:37:39.407Z,22.50
2018-03-22T06:40:07.105Z,22.50
2018-03-22T06:42:34.186Z,22.60
2018-03-22T06:45:01.197Z,22.60
2018-03-22T06:47:28.203Z,22.40
2018-03-22T06:49:55.197Z,22.40
2018-03-22T06:52:22.324Z,22.50
2018-03-22T06:54:49.317Z,22.40
2018-03-22T06:57:16.340Z,22.40
2018-03-22T06:59:43.331Z,22.50
2018-03-22T07:02:11.937Z,22.80
2018-03-22T07:04:38.941Z,22.80
2018-03-22T07:07:05.951Z,22.90
2018-03-22T07:09:33.022Z,22.90
2018-03-22T07:12:00.033Z,23.10
2018-03-22T07:14:27.028Z,23.10
2018-03-22T07:16:54.066Z,23.20
2018-03-22T07:19:21.072Z,23.10
2018-03-22T07:21:48.073Z,23.60
2018-03-22T07:24:15.105Z,22.90
2018-03-22T07:26:42.102Z,23.00
2018-03-22T07:29:09.144Z,23.10
2018-03-22T07:31:37.284Z,23.20
2018-03-22T07:34:04.400Z,23.10
2018-03-22T07:36:31.393Z,23.10
2018-03-22T07:38:58.426Z,23.20
2018-03-22T07:41:25.416Z,23.10
2018-03-22T07:43:52.613Z,23.20
2018-03-22T07:46:19.596Z,23.20
2018-03-22T07:48:46.662Z,23.70
2018-03-22T07:51:13.668Z,23.20
2018-03-22T07:53:42.226Z,23.30
2018-03-22T07:56:09.329Z,23.30
2018-03-22T07:58:37.202Z,23.20
2018-03-22T08:01:04.995Z,23.20
2018-03-22T08:03:32.100Z,23.20
2018-03-22T08:05:59.095Z,23.10
2018-03-22T08:08:26.095Z,23.70
2018-03-22T08:10:53.852Z,23.20
2018-03-22T08:13:21.051Z,23.20
2018-03-22T08:15:48.042Z,23.70
2018-03-22T08:18:15.092Z,23.20
2018-03-22T08:20:42.175Z,23.20
2018-03-22T08:23:09.497Z,23.70
2018-03-22T08:25:36.705Z,23.60
2018-03-22T08:28:03.878Z,23.00
2018-03-22T08:30:30.882Z,23.10
2018-03-22T08:32:58.063Z,23.00
2018-03-22T08:35:25.781Z,23.00
2018-03-22T08:37:53.977Z,23.10
2018-03-22T08:40:20.978Z,23.00
2018-03-22T08:42:48.089Z,23.00
2018-03-22T08:45:16.321Z,23.00
2018-03-22T08:47:43.331Z,23.00
2018-03-22T08:50:10.378Z,23.00
2018-03-22T08:52:38.536Z,23.00
2018-03-22T08:55:06.790Z,23.00
2018-03-22T08:57:34.193Z,23.00
2018-03-22T09:00:01.196Z,23.00
2018-03-22T09:02:28.536Z,23.00
2018-03-22T09:04:55.550Z,23.00
2018-03-22T09:07:22.563Z,23.10
2018-03-22T09:09:49.898Z,23.10
2018-03-22T09:12:16.944Z,23.10
2018-03-22T09:14:43.965Z,23.10
2018-03-22T09:17:12.263Z,23.10
2018-03-22T09:19:39.275Z,23.10
2018-03-22T09:22:06.430Z,23.00
2018-03-22T09:24:34.213Z,23.00
2018-03-22T09:27:01.228Z,22.90
2018-03-22T09:29:28.245Z,23.00
2018-03-22T09:31:55.241Z,23.00
2018-03-22T09:34:23.506Z,23.10
2018-03-22T09:36:50.496Z,23.10
2018-03-22T09:39:17.764Z,23.10
2018-03-22T09:41:44.763Z,23.10
2018-03-22T09:44:11.769Z,23.20
2018-03-22T09:46:39.093Z,23.20
2018-03-22T09:49:06.202Z,23.30
2018-03-22T09:51:33.202Z,23.20
2018-03-22T09:54:00.244Z,23.30
2018-03-22T09:56:27.246Z,23.20
2018-03-22T09:58:54.268Z,23.80
2018-03-22T10:01:22.813Z,23.30
2018-03-22T10:03:49.881Z,23.30
2018-03-22T10:06:16.926Z,23.30
2018-03-22T10:08:43.927Z,23.30
2018-03-22T10:11:10.997Z,23.30
2018-03-22T10:13:38.066Z,23.30
2018-03-22T10:16:05.127Z,23.30
2018-03-22T10:18:32.116Z,23.30
2018-03-22T10:20:59.120Z,23.30
2018-03-22T10:23:26.246Z,23.30
2018-03-22T10:25:53.473Z,23.30
2018-03-22T10:28:20.493Z,23.30
2018-03-22T10:30:47.538Z,23.40
2018-03-22T10:33:14.706Z,23.40
2018-03-22T10:35:41.694Z,23.40
2018-03-22T10:38:08.729Z,23.30
2018-03-22T10:40:35.746Z,23.30
2018-03-22T10:43:02.838Z,23.30
2018-03-22T10:45:29.889Z,23.30
2018-03-22T10:47:58.242Z,23.30
2018-03-22T10:50:25.426Z,23.30
2018-03-22T10:52:52.687Z,23.30
2018-03-22T10:55:20.742Z,23.30
2018-03-22T10:57:47.984Z,23.40
2018-03-22T11:00:15.447Z,23.40
2018-03-22T11:02:42.497Z,23.50
2018-03-22T11:05:09.551Z,23.40
2018-03-22T11:07:36.562Z,23.30
2018-03-22T11:10:03.591Z,23.30
2018-03-22T11:12:30.780Z,23.80
2018-03-22T11:14:57.774Z,23.30
2018-03-22T11:17:25.402Z,23.50
2018-03-22T11:19:52.409Z,23.40
2018-03-22T11:22:19.486Z,23.30
2018-03-22T11:24:46.493Z,23.30
2018-03-22T11:27:14.288Z,23.40
2018-03-22T11:29:41.280Z,23.30
2018-03-22T11:32:08.304Z,23.40
2018-03-22T11:34:35.326Z,23.40
2018-03-22T11:37:02.326Z,23.40
2018-03-22T11:39:29.342Z,23.40
2018-03-22T11:41:56.384Z,23.40
2018-03-22T11:44:23.401Z,23.40
2018-03-22T11:46:51.157Z,23.40
2018-03-22T11:49:18.179Z,23.40
2018-03-22T11:51:46.721Z,23.40
2018-03-22T11:54:13.755Z,23.40
2018-03-22T11:56:40.792Z,23.90
2018-03-22T11:59:07.793Z,23.40
2018-03-22T12:01:34.896Z,23.40
2018-03-22T12:04:01.984Z,23.40
2018-03-22T12:06:29.003Z,23.40
2018-03-22T12:08:56.018Z,23.40
2018-03-22T12:11:23.042Z,23.30
2018-03-22T12:13:50.169Z,23.30
2018-03-22T12:16:17.220Z,23.30
2018-03-22T12:18:44.221Z,23.30
2018-03-22T12:21:11.237Z,23.30
2018-03-22T12:23:38.345Z,23.30
2018-03-22T12:26:05.358Z,23.30
2018-03-22T12:28:32.356Z,23.30
2018-03-22T12:30:59.369Z,23.30
2018-03-22T12:33:26.542Z,23.40
2018-03-22T12:35:54.187Z,23.40
2018-03-22T12:38:21.261Z,23.80
2018-03-22T12:40:48.290Z,23.40
2018-03-22T12:43:15.455Z,23.40
2018-03-22T12:45:43.196Z,23.60
2018-03-22T12:48:10.332Z,23.60
2018-03-22T12:50:38.112Z,24.00
2018-03-22T12:53:05.184Z,23.50
2018-03-22T12:55:32.202Z,23.50
2018-03-22T12:57:59.923Z,23.50
2018-03-22T13:00:26.929Z,23.50
2018-03-22T13:02:53.994Z,23.50
2018-03-22T13:05:21.004Z,23.50
2018-03-22T13:07:48.033Z,23.50
2018-03-22T13:10:15.077Z,23.50
2018-03-22T13:12:42.220Z,23.50
2018-03-22T13:15:09.270Z,23.50
2018-03-22T13:17:36.277Z,23.50
2018-03-22T13:20:03.493Z,23.50
2018-03-22T13:22:30.603Z,23.50
2018-03-22T13:24:57.794Z,23.50
2018-03-22T13:27:24.779Z,23.50
2018-03-22T13:29:51.846Z,23.60
2018-03-22T13:32:20.149Z,23.60
2018-03-22T13:34:47.176Z,23.60
2018-03-22T13:37:14.182Z,23.60
2018-03-22T13:39:41.717Z,23.90
2018-03-22T13:42:09.020Z,23.90
2018-03-22T13:44:36.662Z,23.90
2018-03-22T13:47:03.677Z,24.30
2018-03-22T13:49:30.732Z,24.50
2018-03-22T13:51:57.745Z,24.60
2018-03-22T13:54:24.748Z,24.80
2018-03-22T13:56:51.744Z,25.00
2018-03-22T13:59:18.789Z,25.10
2018-03-22T14:01:45.820Z,25.30
2018-03-22T14:04:13.232Z,24.90
2018-03-22T14:06:40.229Z,25.10
2018-03-22T14:09:07.255Z,24.90
2018-03-22T14:11:34.277Z,24.90
2018-03-22T14:14:01.450Z,24.80
2018-03-22T14:16:28.458Z,24.80
2018-03-22T14:18:55.499Z,24.80
2018-03-22T14:21:22.538Z,24.70
2018-03-22T14:23:49.702Z,24.80
2018-03-22T14:26:16.713Z,24.50
2018-03-22T14:28:43.709Z,24.60
2018-03-22T14:31:10.714Z,24.60
2018-03-22T14:33:37.813Z,24.60
2018-03-22T14:36:04.804Z,24.50
2018-03-22T14:38:32.091Z,24.70
2018-03-22T14:40:59.098Z,24.70
2018-03-22T14:43:26.401Z,24.60
2018-03-22T14:45:53.400Z,24.40
2018-03-22T14:48:20.426Z,24.40
2018-03-22T14:50:48.158Z,24.40
2018-03-22T14:53:16.894Z,24.40
2018-03-22T14:55:43.900Z,24.40
2018-03-22T14:58:10.925Z,24.30
2018-03-22T15:00:37.966Z,24.30
2018-03-22T15:03:05.060Z,24.40
2018-03-22T15:05:32.055Z,24.40
2018-03-22T15:07:59.237Z,24.40
2018-03-22T15:10:26.284Z,24.50
2018-03-22T15:12:54.058Z,24.40
2018-03-22T15:15:21.094Z,24.40
2018-03-22T15:17:48.094Z,24.40
2018-03-22T15:20:17.630Z,24.70
2018-03-22T15:22:44.704Z,24.20
2018-03-22T15:25:11.739Z,24.20
2018-03-22T15:27:38.779Z,24.20
2018-03-22T15:30:05.780Z,24.20
2018-03-22T15:32:34.341Z,24.20
2018-03-22T15:35:01.995Z,24.20
2018-03-22T15:37:28.990Z,24.20
2018-03-22T15:39:56.134Z,24.20
2018-03-22T15:42:23.334Z,24.20
2018-03-22T15:44:50.349Z,24.10
2018-03-22T15:47:18.275Z,24.10
2018-03-22T15:49:45.277Z,24.10
2018-03-22T15:52:12.536Z,24.10
2018-03-22T15:54:39.995Z,24.10
2018-03-22T15:57:07.252Z,24.10
2018-03-22T15:59:34.245Z,24.10
2018-03-22T16:02:01.547Z,24.10
2018-03-22T16:04:28.782Z,24.10
2018-03-22T16:06:55.848Z,24.20
2018-03-22T16:09:22.856Z,24.20
2018-03-22T16:11:49.848Z,24.20
2018-03-22T16:14:16.897Z,24.10
2018-03-22T16:16:43.893Z,24.10
2018-03-22T16:19:10.897Z,24.10
2018-03-22T16:21:38.122Z,24.10
2018-03-22T16:24:05.236Z,24.20
2018-03-22T16:26:32.344Z,24.20
2018-03-22T16:28:59.381Z,24.20
2018-03-22T16:31:27.343Z,24.20
2018-03-22T16:33:54.579Z,24.10
2018-03-22T16:36:22.358Z,24.10
2018-03-22T16:38:49.364Z,24.10
2018-03-22T16:41:17.125Z,24.10
2018-03-22T16:43:44.261Z,24.10
2018-03-22T16:46:11.958Z,24.10
2018-03-22T16:48:39.170Z,24.30
2018-03-22T16:51:06.224Z,24.40
2018-03-22T16:53:33.347Z,24.30
2018-03-22T16:56:00.366Z,24.40
2018-03-22T16:58:29.384Z,24.40
2018-03-22T17:00:56.956Z,24.40
2018-03-22T17:03:24.223Z,24.40
2018-03-22T17:05:51.359Z,24.40
2018-03-22T17:08:19.234Z,24.50
2018-03-22T17:10:49.041Z,24.40
2018-03-22T17:13:16.275Z,24.50
2018-03-22T17:15:43.458Z,24.50
2018-03-22T17:18:10.533Z,24.50
2018-03-22T17:20:38.267Z,24.50
2018-03-22T17:23:05.585Z,24.50
2018-03-22T17:25:36.142Z,24.40
2018-03-22T17:28:03.368Z,24.40
2018-03-22T17:30:30.935Z,24.50
2018-03-22T17:32:58.715Z,24.40
2018-03-22T17:35:26.175Z,24.40
2018-03-22T17:37:53.477Z,24.40
2018-03-22T17:40:22.189Z,24.50
2018-03-22T17:42:50.364Z,24.50
2018-03-22T17:45:17.362Z,24.40
2018-03-22T17:47:44.482Z,24.40
2018-03-22T17:50:11.806Z,24.50
2018-03-22T17:52:39.330Z,24.50
2018-03-22T17:55:08.472Z,24.50
2018-03-22T17:57:35.529Z,24.50
2018-03-22T18:00:02.659Z,24.80
2018-03-22T18:02:31.081Z,24.80
2018-03-22T18:04:58.565Z,24.80
2018-03-22T18:07:25.559Z,24.70
2018-03-22T18:09:52.606Z,24.80
2018-03-22T18:12:19.669Z,24.80
2018-03-22T18:14:47.022Z,24.80
2018-03-22T18:17:14.019Z,25.00
2018-03-22T18:19:41.019Z,24.80
2018-03-22T18:22:08.522Z,24.80
2018-03-22T18:24:36.723Z,24.80
2018-03-22T18:27:03.819Z,24.80
2018-03-22T18:29:30.851Z,24.80
2018-03-22T18:31:59.311Z,24.80
2018-03-22T18:34:26.410Z,24.80
2018-03-22T18:36:53.452Z,24.70
2018-03-22T18:39:20.799Z,24.80
2018-03-22T18:41:48.297Z,24.80
2018-03-22T18:44:16.118Z,24.70
2018-03-22T18:46:43.513Z,24.70
2018-03-22T18:49:11.636Z,24.70
2018-03-22T18:51:38.623Z,24.70
2018-03-22T18:54:05.825Z,24.60
2018-03-22T18:56:32.816Z,24.70
2018-03-22T18:58:59.850Z,24.70
2018-03-22T19:01:27.154Z,24.60
2018-03-22T19:03:54.241Z,24.70
2018-03-22T19:06:22.129Z,24.70
2018-03-22T19:08:49.329Z,24.70
2018-03-22T19:11:16.332Z,24.60
2018-03-22T19:13:44.878Z,24.80
2018-03-22T19:16:12.085Z,24.80
2018-03-22T19:18:39.126Z,24.70
2018-03-22T19:21:07.630Z,24.60
2018-03-22T19:23:34.696Z,24.60
2018-03-22T19:26:01.705Z,24.60
2018-03-22T19:28:28.939Z,24.80
2018-03-22T19:30:55.945Z,24.70
2018-03-22T19:33:23.092Z,24.70
2018-03-22T19:35:50.154Z,24.70
2018-03-22T19:38:18.132Z,24.70
2018-03-22T19:40:45.162Z,24.70
2018-03-22T19:43:12.616Z,24.70
2018-03-22T19:45:39.921Z,24.70
2018-03-22T19:48:06.954Z,24.60
2018-03-22T19:50:33.995Z,24.70
2018-03-22T19:53:01.109Z,24.70
2018-03-22T19:55:28.153Z,24.70
2018-03-22T19:57:55.268Z,24.70
2018-03-22T20:00:23.260Z,24.80
2018-03-22T20:02:50.526Z,24.80
2018-03-22T20:05:17.969Z,24.70
2018-03-22T20:07:44.976Z,24.80
2018-03-22T20:10:12.892Z,24.80
2018-03-22T20:12:40.343Z,24.90
2018-03-22T20:15:07.612Z,25.00
2018-03-22T20:17:35.287Z,25.00
2018-03-22T20:20:02.672Z,24.90
2018-03-22T20:22:30.621Z,24.90
2018-03-22T20:24:57.833Z,25.00
2018-03-22T20:27:25.352Z,25.00
2018-03-22T20:29:53.324Z,25.00
2018-03-22T20:32:21.412Z,25.00
2018-03-22T20:34:49.000Z,25.00
2018-03-22T20:37:16.301Z,25.00
2018-03-22T20:39:43.921Z,25.00
2018-03-22T20:42:11.328Z,24.90
2018-03-22T20:44:38.498Z,25.00
2018-03-22T20:47:05.730Z,24.90
2018-03-22T20:49:32.740Z,24.90
2018-03-22T20:51:59.751Z,25.00
2018-03-22T20:54:27.143Z,25.00
2018-03-22T20:56:54.255Z,25.00
2018-03-22T20:59:22.404Z,24.90
2018-03-22T21:01:49.503Z,24.90
2018-03-22T21:04:16.650Z,25.00
2018-03-22T21:06:43.674Z,24.80
2018-03-22T21:09:11.434Z,25.10
2018-03-22T21:11:38.438Z,25.10
2018-03-22T21:14:05.714Z,25.10
2018-03-22T21:16:32.960Z,25.10
2018-03-22T21:19:01.106Z,25.20
2018-03-22T21:21:28.127Z,25.20
2018-03-22T21:23:55.272Z,25.20
2018-03-22T21:26:24.607Z,25.20
2018-03-22T21:28:52.780Z,25.20
2018-03-22T21:31:19.783Z,25.20
2018-03-22T21:33:47.481Z,25.10
2018-03-22T21:36:14.498Z,25.70
2018-03-22T21:38:41.501Z,25.20
2018-03-22T21:41:08.513Z,25.20
2018-03-22T21:43:35.678Z,25.20
2018-03-22T21:46:02.669Z,25.10
2018-03-22T21:48:29.658Z,25.20
2018-03-22T21:50:56.661Z,25.10
2018-03-22T21:53:23.880Z,25.10
2018-03-22T21:55:50.903Z,25.10
2018-03-22T21:58:17.904Z,25.20
2018-03-22T22:00:45.146Z,25.10
2018-03-22T22:03:12.333Z,25.20
2018-03-22T22:05:40.762Z,25.20
2018-03-22T22:08:08.447Z,25.20
2018-03-22T22:10:36.234Z,25.30
2018-03-22T22:13:03.492Z,25.20
2018-03-22T22:15:30.489Z,25.20
2018-03-22T22:17:57.505Z,25.20
2018-03-22T22:20:24.506Z,25.30
2018-03-22T22:22:51.764Z,25.30
2018-03-22T22:25:19.539Z,25.20
2018-03-22T22:27:46.597Z,25.20
2018-03-22T22:30:13.584Z,25.20
2018-03-22T22:32:40.843Z,25.20
2018-03-22T22:35:08.109Z,25.20
2018-03-22T22:37:35.575Z,25.20
2018-03-22T22:40:02.567Z,25.20
2018-03-22T22:42:29.755Z,25.20
2018-03-22T22:44:57.371Z,25.20
2018-03-22T22:47:24.864Z,25.10
2018-03-22T22:49:51.978Z,25.20
2018-03-22T22:52:19.162Z,25.10
2018-03-22T22:54:46.143Z,25.20
2018-03-22T22:57:13.278Z,25.20
2018-03-22T22:59:40.280Z,25.20
2018-03-22T23:02:07.815Z,25.20
2018-03-22T23:04:35.576Z,25.20
2018-03-22T23:07:02.583Z,25.20
2018-03-22T23:09:29.587Z,25.20
2018-03-22T23:11:56.587Z,25.20
2018-03-22T23:14:23.604Z,25.20
2018-03-22T23:16:50.604Z,25.20
2018-03-22T23:19:17.593Z,25.20
2018-03-22T23:21:44.594Z,25.20
2018-03-22T23:24:11.586Z,25.20
2018-03-22T23:26:38.592Z,25.20
2018-03-22T23:29:05.622Z,25.10
2018-03-22T23:31:34.147Z,25.20
2018-03-22T23:34:01.218Z,25.10
2018-03-22T23:36:28.203Z,25.20
2018-03-22T23:38:56.709Z,25.20
2018-03-22T23:41:23.703Z,25.20
2018-03-22T23:43:50.825Z,25.20
2018-03-22T23:46:17.838Z,25.20
2018-03-22T23:48:46.340Z,25.10
2018-03-22T23:51:13.339Z,25.10
2018-03-22T23:53:40.448Z,25.10
2018-03-22T23:56:07.440Z,25.20
2018-03-22T23:58:34.421Z,25.20
